createdAt,value
2022-10-04T00:01:32.779Z,15.03
2022-10-04T00:04:11.525Z,15.04
2022-10-04T00:06:48.404Z,15.03
2022-10-04T00:09:19.994Z,14.97
2022-10-04T00:11:48.249Z,14.92
2022-10-04T00:14:17.433Z,14.86
2022-10-04T00:16:44.328Z,14.83
2022-10-04T00:19:19.712Z,14.88
2022-10-04T00:21:52.635Z,14.84
2022-10-04T00:24:26.538Z,14.82
2022-10-04T00:27:19.175Z,14.86
2022-10-04T00:30:01.821Z,14.75
2022-10-04T00:32:40.492Z,14.77
2022-10-04T00:35:25.692Z,14.79
2022-10-04T00:38:01.001Z,14.71
2022-10-04T00:40:36.105Z,14.68
2022-10-04T00:43:14.029Z,14.65
2022-10-04T00:45:50.136Z,14.64
2022-10-04T00:48:47.965Z,14.71
2022-10-04T00:51:48.799Z,14.74
2022-10-04T00:54:31.331Z,14.55
2022-10-04T00:57:07.510Z,14.60
2022-10-04T00:59:37.246Z,14.58
2022-10-04T01:02:14.569Z,14.60
2022-10-04T01:04:53.606Z,14.55
2022-10-04T01:07:29.054Z,14.55
2022-10-04T01:10:00.918Z,14.50
2022-10-04T01:12:44.254Z,14.58
2022-10-04T01:15:43.194Z,14.62
2022-10-04T01:18:14.606Z,14.46
2022-10-04T01:20:52.562Z,14.53
2022-10-04T01:23:41.956Z,14.53
2022-10-04T01:26:26.512Z,14.57
2022-10-04T01:28:54.132Z,14.43
2022-10-04T01:31:21.360Z,14.42
2022-10-04T01:33:48.096Z,14.42
2022-10-04T01:36:14.505Z,14.75
2022-10-04T01:38:41.035Z,14.46
2022-10-04T01:41:09.124Z,14.44
2022-10-04T01:43:39.879Z,14.45
2022-10-04T01:46:22.985Z,14.47
2022-10-04T01:48:49.591Z,14.40
2022-10-04T01:51:24.619Z,14.45
2022-10-04T01:54:12.943Z,14.50
2022-10-04T01:56:46.907Z,14.40
2022-10-04T01:59:23.859Z,14.42
2022-10-04T02:01:50.240Z,14.36
2022-10-04T02:04:23.290Z,14.41
2022-10-04T02:06:54.260Z,14.35
2022-10-04T02:09:33.925Z,14.40
2022-10-04T02:12:01.331Z,14.34
2022-10-04T02:14:33.252Z,14.36
2022-10-04T02:17:03.227Z,14.35
2022-10-04T02:19:36.156Z,14.38
2022-10-04T02:22:04.517Z,14.33
2022-10-04T02:24:35.443Z,14.37
2022-10-04T02:27:01.987Z,14.32
2022-10-04T02:29:28.552Z,14.33
2022-10-04T02:32:13.556Z,14.34
2022-10-04T02:34:40.843Z,14.35
2022-10-04T02:37:08.959Z,14.35
2022-10-04T02:39:47.569Z,14.41
2022-10-04T02:42:37.692Z,14.38
2022-10-04T02:45:21.129Z,14.44
2022-10-04T02:47:53.279Z,14.39
2022-10-04T02:50:24.181Z,14.40
2022-10-04T02:52:58.631Z,14.40
2022-10-04T02:55:31.177Z,14.41
2022-10-04T02:57:58.825Z,14.37
2022-10-04T03:00:29.803Z,14.38
2022-10-04T03:03:34.700Z,14.49
2022-10-04T03:06:18.484Z,14.49
2022-10-04T03:08:49.633Z,14.40
2022-10-04T03:11:18.916Z,14.36
2022-10-04T03:13:49.270Z,14.40
2022-10-04T03:16:16.586Z,14.37
2022-10-04T03:18:44.517Z,14.35
2022-10-04T03:21:14.841Z,14.37
2022-10-04T03:23:42.608Z,14.32
2022-10-04T03:26:38.623Z,14.44
2022-10-04T03:29:11.391Z,14.38
2022-10-04T03:31:48.154Z,14.35
2022-10-04T03:34:22.077Z,14.37
2022-10-04T03:36:50.746Z,14.33
2022-10-04T03:39:40.606Z,14.44
2022-10-04T03:42:13.398Z,14.38
2022-10-04T03:44:42.159Z,14.32
2022-10-04T03:47:33.405Z,14.37
2022-10-04T03:50:05.158Z,14.37
2022-10-04T03:52:34.946Z,14.37
2022-10-04T03:55:05.907Z,14.36
2022-10-04T03:57:33.030Z,14.34
2022-10-04T04:00:01.632Z,14.35
2022-10-04T04:02:50.422Z,14.48
2022-10-04T04:05:25.736Z,14.40
2022-10-04T04:08:12.280Z,14.45
2022-10-04T04:10:43.530Z,14.42
2022-10-04T04:13:31.866Z,14.51
2022-10-04T04:16:02.222Z,14.45
2022-10-04T04:18:35.780Z,14.49
2022-10-04T04:21:04.958Z,14.53
2022-10-04T04:23:37.916Z,14.66
2022-10-04T04:26:23.638Z,14.83
2022-10-04T04:29:24.355Z,14.99
2022-10-04T04:32:04.921Z,15.07
2022-10-04T04:34:35.151Z,15.11
2022-10-04T04:37:04.093Z,15.19
2022-10-04T04:39:37.027Z,15.26
2022-10-04T04:42:11.851Z,15.40
2022-10-04T04:45:00.863Z,15.43
2022-10-04T04:47:34.619Z,15.52
2022-10-04T04:50:08.554Z,15.62
2022-10-04T04:52:36.945Z,15.60
2022-10-04T04:55:04.471Z,15.63
2022-10-04T04:57:33.414Z,15.66
2022-10-04T05:00:01.818Z,15.73
2022-10-04T05:02:36.588Z,15.82
2022-10-04T05:05:24.312Z,15.93
2022-10-04T05:08:23.319Z,15.97
2022-10-04T05:11:08.297Z,16.07
2022-10-04T05:13:47.436Z,16.06
2022-10-04T05:16:18.503Z,16.12
2022-10-04T05:18:46.048Z,16.15
2022-10-04T05:21:20.420Z,16.29
2022-10-04T05:23:47.579Z,16.39
2022-10-04T05:26:14.658Z,16.48
2022-10-04T05:28:41.565Z,16.58
2022-10-04T05:31:49.810Z,16.83
2022-10-04T05:34:40.432Z,16.97
2022-10-04T05:37:25.440Z,17.05
2022-10-04T05:40:02.987Z,17.00
2022-10-04T05:42:45.371Z,17.06
2022-10-04T05:45:17.598Z,17.15
2022-10-04T05:47:47.431Z,17.14
2022-10-04T05:50:35.197Z,17.21
2022-10-04T05:53:33.221Z,17.23
2022-10-04T05:56:12.625Z,17.04
2022-10-04T05:59:08.190Z,17.05
2022-10-04T06:01:47.094Z,16.80
2022-10-04T06:04:25.141Z,16.67
2022-10-04T06:07:00.652Z,16.50
2022-10-04T06:09:57.889Z,16.42
2022-10-04T06:12:44.610Z,16.24
2022-10-04T06:15:31.636Z,16.02
2022-10-04T06:18:07.691Z,15.89
2022-10-04T06:20:50.945Z,15.86
2022-10-04T06:23:18.888Z,15.66
2022-10-04T06:25:50.009Z,15.63
2022-10-04T06:28:30.377Z,15.62
2022-10-04T06:31:21.792Z,15.56
2022-10-04T06:34:24.869Z,15.48
2022-10-04T06:37:13.701Z,15.38
2022-10-04T06:40:01.778Z,15.38
2022-10-04T06:43:02.144Z,15.33
2022-10-04T06:45:37.793Z,15.27
2022-10-04T06:48:16.275Z,15.24
2022-10-04T06:50:55.355Z,15.23
2022-10-04T06:53:29.852Z,15.20
2022-10-04T06:56:08.509Z,15.14
2022-10-04T06:58:56.392Z,15.21
2022-10-04T07:01:30.448Z,15.20
2022-10-04T07:04:45.037Z,15.26
2022-10-04T07:07:38.088Z,15.23
2022-10-04T07:10:23.730Z,15.27
2022-10-04T07:13:10.863Z,15.24
2022-10-04T07:15:49.157Z,15.22
2022-10-04T07:18:22.495Z,15.17
2022-10-04T07:20:57.504Z,15.16
2022-10-04T07:23:32.844Z,15.18
2022-10-04T07:26:06.704Z,15.18
2022-10-04T07:28:59.808Z,15.20
2022-10-04T07:31:30.172Z,15.18
2022-10-04T07:34:03.884Z,15.21
2022-10-04T07:36:41.896Z,15.25
2022-10-04T07:39:23.551Z,15.28
2022-10-04T07:41:54.711Z,15.26
2022-10-04T07:44:35.975Z,15.32
2022-10-04T07:47:22.444Z,15.31
2022-10-04T07:49:53.909Z,15.27
2022-10-04T07:52:26.559Z,15.36
2022-10-04T07:55:39.971Z,15.51
2022-10-04T07:58:24.148Z,15.51
2022-10-04T08:01:28.488Z,15.64
2022-10-04T08:04:14.594Z,15.69
2022-10-04T08:06:44.241Z,15.76
2022-10-04T08:09:35.232Z,15.93
2022-10-04T08:12:23.336Z,16.08
2022-10-04T08:15:15.788Z,16.11
2022-10-04T08:18:19.756Z,16.23
2022-10-04T08:21:01.989Z,16.27
2022-10-04T08:23:53.090Z,16.27
2022-10-04T08:26:58.528Z,16.39
2022-10-04T08:29:47.389Z,16.38
2022-10-04T08:32:35.791Z,16.50
2022-10-04T08:35:28.054Z,16.49
2022-10-04T08:38:23.190Z,16.65
2022-10-04T08:41:10.870Z,16.67
2022-10-04T08:43:43.414Z,16.96
2022-10-04T08:46:26.168Z,16.92
2022-10-04T08:49:30.381Z,17.03
2022-10-04T08:52:10.697Z,17.12
2022-10-04T08:55:14.313Z,17.26
2022-10-04T08:58:14.120Z,17.39
2022-10-04T09:00:58.865Z,17.45
2022-10-04T09:03:47.174Z,17.50
2022-10-04T09:06:41.349Z,17.69
2022-10-04T09:09:46.513Z,17.89
2022-10-04T09:12:20.238Z,18.01
2022-10-04T09:15:32.705Z,18.17
2022-10-04T09:18:14.329Z,18.35
2022-10-04T09:21:01.275Z,18.48
2022-10-04T09:24:03.578Z,18.61
2022-10-04T09:26:47.573Z,18.70
2022-10-04T09:29:41.311Z,18.81
2022-10-04T09:32:22.948Z,18.86
2022-10-04T09:35:12.256Z,18.95
2022-10-04T09:38:02.928Z,19.17
2022-10-04T09:41:08.563Z,19.28
2022-10-04T09:44:05.411Z,19.39
2022-10-04T09:46:48.978Z,19.41
2022-10-04T09:49:50.606Z,19.56
2022-10-04T09:52:47.737Z,19.67
2022-10-04T09:55:58.825Z,19.82
2022-10-04T09:58:34.032Z,19.82
2022-10-04T10:01:09.752Z,19.92
2022-10-04T10:04:09.952Z,20.11
2022-10-04T10:06:49.909Z,20.17
2022-10-04T10:09:43.592Z,20.29
2022-10-04T10:12:39.897Z,20.42
2022-10-04T10:15:23.126Z,20.51
2022-10-04T10:18:11.720Z,20.61
2022-10-04T10:21:08.135Z,20.69
2022-10-04T10:23:56.133Z,20.72
2022-10-04T10:27:02.336Z,20.93
2022-10-04T10:29:45.289Z,20.91
2022-10-04T10:32:44.890Z,21.06
2022-10-04T10:35:49.179Z,21.24
2022-10-04T10:38:40.388Z,21.28
2022-10-04T10:41:46.625Z,21.42
2022-10-04T10:44:29.718Z,21.44
2022-10-04T10:47:03.270Z,21.46
2022-10-04T10:49:44.334Z,21.54
2022-10-04T10:52:43.686Z,21.58
2022-10-04T10:55:22.689Z,21.51
2022-10-04T10:58:17.249Z,21.55
2022-10-04T11:01:06.973Z,21.67
2022-10-04T11:03:54.001Z,21.71
2022-10-04T11:06:39.436Z,21.79
2022-10-04T11:09:24.410Z,21.75
2022-10-04T11:12:15.522Z,21.86
2022-10-04T11:15:16.246Z,21.97
2022-10-04T11:18:08.498Z,22.05
2022-10-04T11:21:11.251Z,22.17
2022-10-04T11:24:14.864Z,22.20
2022-10-04T11:26:46.737Z,22.14
2022-10-04T11:29:25.105Z,22.26
2022-10-04T11:32:00.594Z,22.32
2022-10-04T11:34:46.361Z,22.43
2022-10-04T11:37:27.912Z,22.49
2022-10-04T11:40:13.183Z,22.57
2022-10-04T11:42:56.268Z,22.57
2022-10-04T11:45:55.848Z,22.67
2022-10-04T11:48:56.045Z,22.68
2022-10-04T11:51:37.758Z,22.69
2022-10-04T11:54:41.744Z,22.74
2022-10-04T11:57:32.169Z,22.73
2022-10-04T12:00:11.198Z,22.71
2022-10-04T12:02:50.235Z,22.79
2022-10-04T12:05:35.079Z,22.84
2022-10-04T12:08:52.399Z,22.85
2022-10-04T12:11:47.851Z,22.89
2022-10-04T12:14:40.804Z,22.94
2022-10-04T12:17:29.931Z,22.95
2022-10-04T12:20:36.035Z,23.12
2022-10-04T12:23:11.454Z,23.06
2022-10-04T12:26:08.222Z,23.23
2022-10-04T12:28:52.976Z,23.27
2022-10-04T12:31:31.744Z,23.27
2022-10-04T12:34:29.429Z,23.34
2022-10-04T12:37:17.068Z,23.36
2022-10-04T12:40:12.056Z,23.42
2022-10-04T12:43:10.155Z,23.41
2022-10-04T12:45:48.511Z,23.48
2022-10-04T12:48:21.002Z,23.48
2022-10-04T12:50:47.405Z,23.51
2022-10-04T12:53:20.268Z,23.52
2022-10-04T12:56:20.815Z,23.61
2022-10-04T12:59:02.578Z,23.59
2022-10-04T13:02:05.640Z,23.63
2022-10-04T13:04:39.674Z,23.53
2022-10-04T13:07:25.752Z,23.55
2022-10-04T13:10:22.450Z,23.58
2022-10-04T13:13:22.641Z,23.72
2022-10-04T13:19:17.871Z,23.70
2022-10-04T13:22:10.256Z,23.67
2022-10-04T13:25:07.866Z,23.77
2022-10-04T13:28:02.456Z,23.82
2022-10-04T13:30:35.056Z,23.75
2022-10-04T13:33:35.673Z,23.82
2022-10-04T13:36:29.387Z,23.87
2022-10-04T13:38:58.801Z,23.75
2022-10-04T13:41:25.394Z,23.77
2022-10-04T13:44:06.341Z,23.86
2022-10-04T13:47:10.917Z,23.86
2022-10-04T13:50:02.516Z,24.09
2022-10-04T13:53:13.273Z,24.13
2022-10-04T13:56:10.518Z,24.13
2022-10-04T13:58:51.918Z,24.20
2022-10-04T14:01:31.314Z,24.23
2022-10-04T14:04:42.583Z,24.35
2022-10-04T14:07:34.487Z,24.36
2022-10-04T14:10:22.411Z,24.27
2022-10-04T14:12:48.806Z,24.23
2022-10-04T14:15:26.926Z,24.26
2022-10-04T14:18:32.085Z,24.36
2022-10-04T14:21:18.209Z,24.34
2022-10-04T14:24:08.827Z,24.40
2022-10-04T14:26:44.565Z,24.38
2022-10-04T14:29:46.272Z,24.45
2022-10-04T14:32:30.677Z,24.45
2022-10-04T14:35:20.374Z,24.36
2022-10-04T14:38:08.432Z,24.34
2022-10-04T14:40:56.817Z,24.40
2022-10-04T14:43:53.756Z,24.33
2022-10-04T14:46:44.127Z,24.26
2022-10-04T14:49:38.335Z,24.29
2022-10-04T14:52:29.143Z,24.15
2022-10-04T14:55:10.483Z,24.21
2022-10-04T14:58:13.997Z,24.21
2022-10-04T15:01:01.846Z,24.20
2022-10-04T15:03:48.354Z,24.18
2022-10-04T15:06:22.159Z,24.07
2022-10-04T15:09:18.900Z,24.09
2022-10-04T15:12:32.599Z,24.10
2022-10-04T15:15:14.936Z,24.02
2022-10-04T15:17:59.751Z,24.04
2022-10-04T15:20:33.829Z,23.91
2022-10-04T15:23:29.365Z,23.95
2022-10-04T15:26:45.274Z,24.00
2022-10-04T15:29:23.855Z,23.82
2022-10-04T15:32:07.317Z,23.73
2022-10-04T15:34:58.002Z,23.78
2022-10-04T15:37:44.233Z,23.68
2022-10-04T15:40:24.156Z,23.62
2022-10-04T15:43:50.181Z,23.77
2022-10-04T15:46:28.966Z,23.59
2022-10-04T15:49:13.033Z,23.51
2022-10-04T15:51:48.690Z,23.42
2022-10-04T15:54:34.096Z,23.45
2022-10-04T15:57:19.454Z,23.24
2022-10-04T15:59:55.622Z,23.29
2022-10-04T16:02:40.426Z,23.28
2022-10-04T16:05:22.953Z,23.26
2022-10-04T16:08:03.800Z,23.20
2022-10-04T16:11:09.169Z,23.24
2022-10-04T16:13:57.043Z,23.11
2022-10-04T16:16:29.336Z,23.06
2022-10-04T16:19:19.324Z,23.05
2022-10-04T16:22:11.176Z,23.05
2022-10-04T16:24:57.706Z,22.94
2022-10-04T16:27:57.082Z,22.88
2022-10-04T16:31:08.940Z,22.81
2022-10-04T16:33:43.118Z,22.60
2022-10-04T16:36:17.309Z,22.52
2022-10-04T16:39:06.915Z,22.40
2022-10-04T16:41:42.245Z,22.38
2022-10-04T16:44:23.789Z,22.28
2022-10-04T16:46:52.266Z,22.16
2022-10-04T16:49:41.198Z,22.19
2022-10-04T16:52:19.855Z,22.11
2022-10-04T16:54:57.961Z,22.01
2022-10-04T16:57:27.818Z,21.82
2022-10-04T16:59:57.263Z,21.76
2022-10-04T17:02:45.925Z,21.72
2022-10-04T17:06:11.787Z,21.85
2022-10-04T17:09:09.143Z,21.63
2022-10-04T17:11:41.239Z,21.45
2022-10-04T17:14:51.328Z,21.57
2022-10-04T17:17:32.133Z,21.43
2022-10-04T17:20:29.651Z,21.34
2022-10-04T17:23:13.722Z,21.24
2022-10-04T17:26:17.870Z,21.27
2022-10-04T17:28:57.506Z,21.14
2022-10-04T17:31:37.560Z,21.07
2022-10-04T17:34:30.303Z,21.06
2022-10-04T17:37:11.210Z,20.90
2022-10-04T17:39:48.313Z,20.88
2022-10-04T17:42:41.949Z,20.95
2022-10-04T17:45:46.292Z,20.88
2022-10-04T17:48:35.842Z,20.71
2022-10-04T17:51:27.451Z,20.65
2022-10-04T17:54:19.554Z,20.62
2022-10-04T17:56:52.797Z,20.58
2022-10-04T17:59:30.718Z,20.51
2022-10-04T18:02:11.044Z,20.48
2022-10-04T18:04:48.790Z,20.45
2022-10-04T18:07:18.701Z,20.38
2022-10-04T18:09:52.545Z,20.26
2022-10-04T18:12:30.245Z,20.31
2022-10-04T18:15:25.920Z,20.33
2022-10-04T18:18:06.748Z,20.14
2022-10-04T18:20:59.858Z,20.20
2022-10-04T18:23:29.122Z,20.07
2022-10-04T18:26:05.084Z,20.06
2022-10-04T18:28:34.761Z,19.94
2022-10-04T18:31:14.274Z,20.04
2022-10-04T18:33:40.697Z,19.89
2022-10-04T18:36:31.854Z,20.00
2022-10-04T18:39:04.173Z,19.91
2022-10-04T18:41:52.027Z,19.81
2022-10-04T18:44:27.387Z,19.84
2022-10-04T18:46:57.728Z,19.78
2022-10-04T18:49:28.500Z,19.76
2022-10-04T18:52:22.748Z,19.85
2022-10-04T18:55:20.942Z,19.82
2022-10-04T18:58:23.910Z,20.03
2022-10-04T19:01:24.318Z,19.74
2022-10-04T19:03:59.688Z,19.66
2022-10-04T19:06:38.765Z,19.64
2022-10-04T19:09:26.764Z,19.61
2022-10-04T19:12:00.217Z,19.52
2022-10-04T19:14:47.588Z,19.55
2022-10-04T19:17:45.320Z,19.57
2022-10-04T19:20:23.307Z,19.48
2022-10-04T19:23:07.498Z,19.42
2022-10-04T19:25:41.019Z,19.32
2022-10-04T19:28:18.378Z,19.36
2022-10-04T19:30:48.409Z,19.29
2022-10-04T19:33:20.573Z,19.28
2022-10-04T19:36:09.911Z,19.25
2022-10-04T19:39:02.799Z,19.25
2022-10-04T19:41:37.740Z,19.20
2022-10-04T19:44:25.544Z,19.21
2022-10-04T19:47:01.200Z,19.09
2022-10-04T19:49:33.611Z,19.04
2022-10-04T19:52:27.403Z,19.11
2022-10-04T19:55:18.859Z,19.00
2022-10-04T19:57:51.344Z,18.91
2022-10-04T20:00:20.287Z,18.86
2022-10-04T20:02:48.882Z,18.83
2022-10-04T20:05:24.721Z,18.84
2022-10-04T20:07:56.374Z,18.81
2022-10-04T20:10:30.531Z,18.83
2022-10-04T20:13:21.372Z,18.92
2022-10-04T20:15:56.239Z,18.79
2022-10-04T20:18:34.610Z,18.80
2022-10-04T20:21:01.459Z,18.69
2022-10-04T20:23:40.310Z,18.76
2022-10-04T20:26:08.672Z,18.64
2022-10-04T20:28:41.851Z,18.57
2022-10-04T20:31:29.393Z,18.56
2022-10-04T21:47:41.864Z,17.86
2022-10-04T21:50:08.431Z,18.14
2022-10-04T21:52:34.992Z,17.82
2022-10-04T21:55:01.367Z,18.10
2022-10-04T21:57:30.741Z,17.79
2022-10-04T21:59:59.720Z,17.74
2022-10-04T22:02:26.282Z,17.72
2022-10-04T22:04:52.672Z,18.04
2022-10-04T22:07:19.131Z,17.73
2022-10-04T22:09:45.551Z,17.70
2022-10-04T22:12:12.055Z,17.69
2022-10-04T22:14:38.464Z,17.68
2022-10-04T22:17:04.938Z,17.64
2022-10-04T22:19:31.351Z,17.99
2022-10-04T22:21:57.892Z,17.69
2022-10-04T22:24:24.236Z,18.00
2022-10-04T22:26:50.831Z,17.73
2022-10-04T22:29:17.933Z,18.01
2022-10-04T22:31:51.441Z,17.78
2022-10-04T22:34:20.505Z,17.68
2022-10-04T22:36:48.987Z,17.64
2022-10-04T22:39:18.005Z,17.64
2022-10-04T22:41:47.296Z,17.64
2022-10-04T22:44:19.135Z,17.61
2022-10-04T22:46:50.487Z,17.64
2022-10-04T22:49:20.381Z,17.60
2022-10-04T22:51:49.272Z,17.62
2022-10-04T22:54:17.771Z,17.60
2022-10-04T22:56:44.707Z,17.57
2022-10-04T22:59:13.841Z,17.59
2022-10-04T23:01:40.329Z,17.57
2022-10-04T23:04:16.596Z,17.69
2022-10-04T23:06:44.168Z,17.62
2022-10-04T23:09:10.861Z,17.60
2022-10-04T23:11:37.318Z,17.62
2022-10-04T23:14:03.976Z,17.63
2022-10-04T23:16:30.505Z,17.97
2022-10-04T23:19:20.481Z,17.85
2022-10-04T23:21:49.837Z,17.73
2022-10-04T23:24:19.925Z,17.69
2022-10-04T23:26:50.283Z,17.70
2022-10-04T23:29:21.683Z,17.71
2022-10-04T23:31:49.813Z,17.67
2022-10-04T23:34:35.703Z,17.72
2022-10-04T23:37:03.297Z,17.69
2022-10-04T23:39:34.809Z,17.74
2022-10-04T23:42:05.345Z,17.69
2022-10-04T23:44:37.261Z,17.73
2022-10-04T23:47:11.346Z,17.74
2022-10-04T23:49:37.837Z,17.68
2022-10-04T23:52:04.418Z,17.67
2022-10-04T23:54:30.805Z,18.00
2022-10-04T23:56:57.205Z,17.69
2022-10-04T23:59:25.855Z,17.66
